Oak Bluffs, Massachusetts
Current Conditions -  °F | °C
As of 3:10 PM on Thursday 27 Nov 2014 (Local Time) from KMVY Reporting Station
Overcast Overcast  
Wind Chill: 40°   Ceiling: 3900
Heat Index: 40°   Visibility: 10mi
Dew Point: 29°   Wind: 0mph
Humidity: 65%   Direction: NA
Pressure: 29.94"   Gusts: NA
Location:  41.45°N, 70.56°W
Report Text: KMVY 272010Z 00000KT 10SM SCT022 OVC039 04/M02 A2994 RMK AO2 T00441017
Loading
Personal Weather Stations






























Interactive Weather Map New forecast layout! Learn more

10-Day Weather Forecast

Advertisements
Track Severe Weather on mobile